Terminal Aerodrome Forecast
Issued by NWS Charleston, WV

Current Version | Previous Version | Graphics & Text | Print | Product List | Glossary Off
Versions: 1 2 3 4 5 6 7 8 9 10 11 12 13 14 15 16 17 18 19 20 21 22 23 24 25 26 27

757
FTUS41 KRLX 241120
TAFPKB
TAF
KPKB 241120Z 2412/2512 18005KT P6SM SCT080
     FM241600 19009KT P6SM SCT070
     FM250300 17010G17KT P6SM SCT050=

USA.gov is the U.S. government's official web portal to all federal, state and local government web resources and services.